createdAt,value
2019-02-24T00:01:54.407Z,8.10
2019-02-24T00:04:23.244Z,8.10
2019-02-24T00:06:52.009Z,9.13
2019-02-24T00:09:20.713Z,8.77
2019-02-24T00:11:49.443Z,7.60
2019-02-24T00:14:18.199Z,8.10
2019-02-24T00:16:47.201Z,8.20
2019-02-24T00:19:15.948Z,7.90
2019-02-24T00:21:44.828Z,7.57
2019-02-24T00:24:13.636Z,7.87
2019-02-24T00:26:42.446Z,8.47
2019-02-24T00:29:11.186Z,8.67
2019-02-24T00:31:39.939Z,8.97
2019-02-24T00:34:08.644Z,8.47
2019-02-24T00:36:37.361Z,9.20
2019-02-24T00:39:06.542Z,9.37
2019-02-24T00:41:35.245Z,9.37
2019-02-24T00:44:04.007Z,9.47
2019-02-24T00:46:32.724Z,9.37
2019-02-24T00:49:01.434Z,8.90
2019-02-24T00:51:30.149Z,9.30
2019-02-24T00:53:58.869Z,9.70
2019-02-24T00:56:27.621Z,10.00
2019-02-24T00:58:56.341Z,9.23
2019-02-24T01:01:25.087Z,9.73
2019-02-24T01:03:53.865Z,10.83
2019-02-24T01:06:22.593Z,9.20
2019-02-24T01:08:51.309Z,9.67
2019-02-24T01:11:20.173Z,8.80
2019-02-24T01:13:48.901Z,9.70
2019-02-24T01:16:17.629Z,9.57
2019-02-24T01:18:46.437Z,9.30
2019-02-24T01:21:15.209Z,9.07
2019-02-24T01:23:43.941Z,8.13
2019-02-24T01:26:12.701Z,9.30
2019-02-24T01:28:41.502Z,9.17
2019-02-24T01:31:10.210Z,8.87
2019-02-24T01:33:38.925Z,8.57
2019-02-24T01:36:07.650Z,8.57
2019-02-24T01:38:36.479Z,8.20
2019-02-24T01:41:05.189Z,8.00
2019-02-24T01:43:33.945Z,8.33
2019-02-24T01:46:02.667Z,7.80
2019-02-24T01:48:31.437Z,8.47
2019-02-24T01:51:00.189Z,8.17
2019-02-24T01:53:29.394Z,8.47
2019-02-24T01:55:58.173Z,7.97
2019-02-24T01:58:35.000Z,7.93
2019-02-24T02:00:57.410Z,8.17
2019-02-24T02:03:26.133Z,8.53
2019-02-24T02:05:54.884Z,9.23
2019-02-24T02:08:23.594Z,7.63
2019-02-24T02:10:52.313Z,8.50
2019-02-24T02:13:21.027Z,7.90
2019-02-24T02:15:49.733Z,8.93
2019-02-24T02:18:18.491Z,9.67
2019-02-24T02:20:47.229Z,8.10
2019-02-24T02:23:16.289Z,8.00
2019-02-24T02:25:44.981Z,8.83
2019-02-24T02:28:13.717Z,8.77
2019-02-24T02:30:42.501Z,9.07
2019-02-24T02:33:11.552Z,8.60
2019-02-24T02:35:40.254Z,8.63
2019-02-24T02:38:08.953Z,8.00
2019-02-24T02:40:37.680Z,8.07
2019-02-24T02:43:06.435Z,7.93
2019-02-24T02:45:35.183Z,7.80
2019-02-24T02:48:03.901Z,7.67
2019-02-24T02:50:32.749Z,7.97
2019-02-24T02:53:01.558Z,8.07
2019-02-24T02:55:30.273Z,8.93
2019-02-24T02:57:59.044Z,8.13
2019-02-24T03:00:34.409Z,8.33
2019-02-24T03:03:03.215Z,7.70
2019-02-24T03:05:32.333Z,8.87
2019-02-24T03:08:12.493Z,9.20
2019-02-24T03:10:41.205Z,8.23
2019-02-24T03:13:09.990Z,8.80
2019-02-24T03:15:38.741Z,8.37
2019-02-24T03:18:07.478Z,9.47
2019-02-24T03:20:36.194Z,9.20
2019-02-24T03:23:05.157Z,8.40
2019-02-24T03:25:33.862Z,9.07
2019-02-24T03:28:02.568Z,9.60
2019-02-24T03:30:31.377Z,8.80
2019-02-24T03:33:00.070Z,9.03
2019-02-24T03:35:28.797Z,8.13
2019-02-24T03:37:57.530Z,8.53
2019-02-24T03:40:26.258Z,7.97
2019-02-24T03:42:54.988Z,8.30
2019-02-24T03:45:23.742Z,8.20
2019-02-24T03:47:52.471Z,8.70
2019-02-24T03:50:21.273Z,8.50
2019-02-24T03:52:50.094Z,9.07
2019-02-24T03:55:18.811Z,9.50
2019-02-24T03:57:47.598Z,9.40
2019-02-24T04:00:16.540Z,8.73
2019-02-24T04:02:45.317Z,8.83
2019-02-24T04:05:14.058Z,9.47
2019-02-24T04:07:42.781Z,8.53
2019-02-24T04:10:11.564Z,9.53
2019-02-24T04:12:40.461Z,8.43
2019-02-24T04:15:09.389Z,10.13
2019-02-24T04:17:38.121Z,9.20
2019-02-24T04:20:07.247Z,8.57
2019-02-24T04:22:35.981Z,9.43
2019-02-24T04:25:04.867Z,9.13
2019-02-24T04:27:33.598Z,9.53
2019-02-24T04:30:02.313Z,9.50
2019-02-24T04:32:31.017Z,8.50
2019-02-24T04:34:59.754Z,9.13
2019-02-24T04:37:28.480Z,8.70
2019-02-24T04:39:57.262Z,9.40
2019-02-24T04:42:25.978Z,9.30
2019-02-24T04:44:54.702Z,8.90
2019-02-24T04:47:23.491Z,9.67
2019-02-24T04:49:52.219Z,9.47
2019-02-24T04:52:20.944Z,9.83
2019-02-24T04:54:49.649Z,9.20
2019-02-24T04:57:18.357Z,9.23
2019-02-24T04:59:47.081Z,9.23
2019-02-24T05:02:15.806Z,9.70
2019-02-24T05:04:44.505Z,8.90
2019-02-24T05:07:13.503Z,10.17
2019-02-24T05:09:42.219Z,9.73
2019-02-24T05:12:10.925Z,10.17
2019-02-24T05:14:39.654Z,9.50
2019-02-24T05:17:08.385Z,9.43
2019-02-24T05:19:37.076Z,8.90
2019-02-24T05:22:05.815Z,8.73
2019-02-24T05:24:34.517Z,9.13
2019-02-24T05:27:03.217Z,8.53
2019-02-24T05:29:32.101Z,9.50
2019-02-24T05:32:00.849Z,9.60
2019-02-24T05:34:29.558Z,9.07
2019-02-24T05:36:58.317Z,8.73
2019-02-24T05:39:27.018Z,8.30
2019-02-24T05:41:55.758Z,8.87
2019-02-24T05:44:24.473Z,8.67
2019-02-24T05:46:53.258Z,9.13
2019-02-24T05:49:22.066Z,8.60
2019-02-24T05:51:50.791Z,8.03
2019-02-24T05:54:19.503Z,7.93
2019-02-24T05:56:48.206Z,9.27
2019-02-24T05:59:16.926Z,9.10
2019-02-24T06:01:45.625Z,9.07
2019-02-24T06:04:14.364Z,9.33
2019-02-24T06:06:43.092Z,9.27
2019-02-24T06:09:11.881Z,9.17
2019-02-24T06:11:40.590Z,8.63
2019-02-24T06:14:09.326Z,9.40
2019-02-24T06:16:38.093Z,9.70
2019-02-24T06:19:06.818Z,8.70
2019-02-24T06:21:35.527Z,9.27
2019-02-24T06:24:04.238Z,9.60
2019-02-24T06:26:32.943Z,9.00
2019-02-24T06:29:01.665Z,9.67
2019-02-24T06:31:31.471Z,9.27
2019-02-24T06:34:00.150Z,8.60
2019-02-24T06:36:28.874Z,10.23
2019-02-24T06:38:57.598Z,9.80
2019-02-24T06:41:26.315Z,9.73
2019-02-24T06:43:55.064Z,8.87
2019-02-24T06:46:23.760Z,10.33
2019-02-24T06:48:52.459Z,10.20
2019-02-24T06:51:21.290Z,10.13
2019-02-24T06:53:50.014Z,10.80
2019-02-24T06:56:18.723Z,9.77
2019-02-24T06:58:47.513Z,10.00
2019-02-24T07:01:16.252Z,10.00
2019-02-24T07:03:45.018Z,11.23
2019-02-24T07:06:13.835Z,9.53
2019-02-24T07:08:42.553Z,9.93
2019-02-24T07:11:11.273Z,10.13
2019-02-24T07:13:40.038Z,10.57
2019-02-24T07:16:08.768Z,9.13
2019-02-24T07:18:37.529Z,10.67
2019-02-24T07:21:06.246Z,10.30
2019-02-24T07:23:34.970Z,10.40
2019-02-24T07:26:03.694Z,10.37
2019-02-24T07:28:32.449Z,9.37
2019-02-24T07:31:01.266Z,10.63
2019-02-24T07:33:30.002Z,9.53
2019-02-24T07:35:58.737Z,10.47
2019-02-24T07:38:27.456Z,9.77
2019-02-24T07:40:56.282Z,11.13
2019-02-24T07:43:25.030Z,10.20
2019-02-24T07:45:53.762Z,9.93
2019-02-24T07:48:22.577Z,13.63
2019-02-24T07:50:51.414Z,13.10
2019-02-24T07:53:20.205Z,12.50
2019-02-24T07:55:48.950Z,12.17
2019-02-24T07:58:17.966Z,11.20
2019-02-24T08:00:46.699Z,11.10
2019-02-24T08:03:15.401Z,12.20
2019-02-24T08:05:44.317Z,11.60
2019-02-24T08:08:16.805Z,11.07
2019-02-24T08:10:45.687Z,12.00
2019-02-24T08:13:14.589Z,11.33
2019-02-24T08:15:43.439Z,11.07
2019-02-24T08:18:13.230Z,9.97
2019-02-24T08:20:41.964Z,10.60
2019-02-24T08:23:11.088Z,11.03
2019-02-24T08:25:39.977Z,12.17
2019-02-24T08:28:08.739Z,11.07
2019-02-24T08:30:41.553Z,10.60
2019-02-24T08:33:08.026Z,10.70
2019-02-24T08:35:36.761Z,11.20
2019-02-24T08:38:05.466Z,11.47
2019-02-24T08:40:34.185Z,10.60
2019-02-24T08:43:03.001Z,10.33
2019-02-24T08:45:31.713Z,10.53
2019-02-24T08:48:00.571Z,10.83
2019-02-24T08:50:29.319Z,11.07
2019-02-24T08:52:58.047Z,10.33
2019-02-24T08:55:26.755Z,11.43
2019-02-24T08:57:55.474Z,11.17
2019-02-24T09:00:24.253Z,11.03
2019-02-24T09:02:54.449Z,11.30
2019-02-24T09:05:23.233Z,9.87
2019-02-24T09:07:51.966Z,11.00
2019-02-24T09:10:20.764Z,10.63
2019-02-24T09:12:49.509Z,10.57
2019-02-24T09:15:18.241Z,10.23
2019-02-24T09:17:46.966Z,10.73
2019-02-24T09:20:15.889Z,9.70
2019-02-24T09:22:44.791Z,11.10
2019-02-24T09:25:13.794Z,10.37
2019-02-24T09:27:42.542Z,10.50
2019-02-24T09:30:11.426Z,9.90
2019-02-24T09:32:40.172Z,10.33
2019-02-24T09:35:09.306Z,9.83
2019-02-24T09:37:38.013Z,10.50
2019-02-24T09:40:08.214Z,10.23
2019-02-24T09:42:37.055Z,9.80
2019-02-24T09:45:06.696Z,9.60
2019-02-24T09:47:35.422Z,10.07
2019-02-24T09:50:04.305Z,9.50
2019-02-24T09:52:33.043Z,9.27
2019-02-24T09:55:01.879Z,9.70
2019-02-24T09:57:30.679Z,8.87
2019-02-24T09:59:59.409Z,8.30
2019-02-24T10:02:28.132Z,8.93
2019-02-24T10:04:56.879Z,9.73
2019-02-24T10:07:25.589Z,8.53
2019-02-24T10:09:54.306Z,8.90
2019-02-24T10:12:23.309Z,9.53
2019-02-24T10:14:52.085Z,8.93
2019-02-24T10:17:20.785Z,8.20
2019-02-24T10:19:49.501Z,8.40
2019-02-24T10:22:18.233Z,8.50
2019-02-24T10:24:46.962Z,9.57
2019-02-24T10:27:16.288Z,8.70
2019-02-24T10:29:45.041Z,8.60
2019-02-24T10:32:13.959Z,8.20
2019-02-24T10:34:42.713Z,8.57
2019-02-24T10:37:11.509Z,9.13
2019-02-24T10:39:40.285Z,7.77
2019-02-24T10:42:09.009Z,7.90
2019-02-24T10:44:37.737Z,7.77
2019-02-24T10:47:06.453Z,8.33
2019-02-24T10:49:35.306Z,8.03
2019-02-24T10:52:04.089Z,7.47
2019-02-24T10:54:32.826Z,6.87
2019-02-24T10:57:01.578Z,7.00
2019-02-24T10:59:30.282Z,7.30
2019-02-24T11:01:58.994Z,6.90
2019-02-24T11:04:27.753Z,7.20
2019-02-24T11:06:56.448Z,7.47
2019-02-24T11:09:25.168Z,7.23
2019-02-24T11:11:53.994Z,7.17
2019-02-24T11:14:22.698Z,7.17
2019-02-24T11:16:51.413Z,6.90
2019-02-24T11:19:20.166Z,7.53
2019-02-24T11:21:48.953Z,7.30
2019-02-24T11:24:17.674Z,6.80
2019-02-24T11:26:46.507Z,8.67
2019-02-24T11:29:15.305Z,7.47
2019-02-24T11:31:44.103Z,6.93
2019-02-24T11:34:12.959Z,7.17
2019-02-24T11:36:41.873Z,7.73
2019-02-24T11:39:10.674Z,7.63
2019-02-24T11:41:39.499Z,7.60
2019-02-24T11:44:08.346Z,8.10
2019-02-24T11:46:37.126Z,7.20
2019-02-24T11:49:05.865Z,7.00
2019-02-24T11:51:34.616Z,7.13
2019-02-24T11:54:03.396Z,7.80
2019-02-24T11:56:32.232Z,7.97
2019-02-24T11:59:01.073Z,7.83
2019-02-24T12:01:29.825Z,7.50
2019-02-24T12:03:58.666Z,7.33
2019-02-24T12:06:27.453Z,6.67
2019-02-24T12:09:04.877Z,8.33
2019-02-24T12:11:26.689Z,8.33
2019-02-24T12:13:55.409Z,8.77
2019-02-24T12:16:24.133Z,8.40
2019-02-24T12:18:52.979Z,9.13
2019-02-24T12:21:21.838Z,8.30
2019-02-24T12:23:50.790Z,8.13
2019-02-24T12:26:19.713Z,7.40
2019-02-24T12:28:51.585Z,8.43
2019-02-24T12:31:20.402Z,7.93
2019-02-24T12:33:49.133Z,8.10
2019-02-24T12:36:18.131Z,7.73
2019-02-24T12:38:46.905Z,8.20
2019-02-24T12:41:15.782Z,7.77
2019-02-24T12:43:44.501Z,8.10
2019-02-24T12:46:15.060Z,8.87
2019-02-24T12:48:43.844Z,8.20
2019-02-24T12:51:12.692Z,7.67
2019-02-24T12:53:41.658Z,7.50
2019-02-24T12:56:10.406Z,7.57
2019-02-24T12:58:39.228Z,7.73
2019-02-24T13:01:08.077Z,7.53
2019-02-24T13:03:39.068Z,8.97
2019-02-24T13:06:11.113Z,8.03
2019-02-24T13:08:40.135Z,8.43
2019-02-24T13:11:09.219Z,8.47
2019-02-24T13:13:38.161Z,8.57
2019-02-24T13:16:06.949Z,8.77
2019-02-24T13:18:36.899Z,7.80
2019-02-24T13:21:05.947Z,8.70
2019-02-24T13:23:35.324Z,9.03
2019-02-24T13:26:04.160Z,8.50
2019-02-24T13:28:37.341Z,8.50
2019-02-24T13:31:06.195Z,8.60
2019-02-24T13:33:34.949Z,8.83
2019-02-24T13:36:03.823Z,10.77
2019-02-24T13:38:32.651Z,8.37
2019-02-24T13:41:01.413Z,8.17
2019-02-24T13:43:30.170Z,24.73
2019-02-24T13:45:58.922Z,9.60
2019-02-24T13:48:27.698Z,8.60
2019-02-24T13:50:56.437Z,10.60
2019-02-24T13:53:25.149Z,10.37
2019-02-24T13:55:53.988Z,8.20
2019-02-24T13:58:22.690Z,7.10
2019-02-24T14:00:51.489Z,8.03
2019-02-24T14:03:20.229Z,6.67
2019-02-24T14:05:48.989Z,7.57
2019-02-24T14:08:17.735Z,6.77
2019-02-24T14:10:46.473Z,6.50
2019-02-24T14:13:15.346Z,7.03
2019-02-24T14:15:44.208Z,6.65
2019-02-24T14:18:13.026Z,6.37
2019-02-24T14:20:41.756Z,6.80
2019-02-24T14:23:10.489Z,7.70
2019-02-24T14:25:39.217Z,7.55
2019-02-24T14:28:07.945Z,7.78
2019-02-24T14:30:36.722Z,7.72
2019-02-24T14:33:05.457Z,8.05
2019-02-24T14:35:34.461Z,7.25
2019-02-24T14:38:03.297Z,7.40
2019-02-24T14:40:32.034Z,7.58
2019-02-24T14:43:00.852Z,7.12
2019-02-24T14:45:29.557Z,6.72
2019-02-24T14:47:58.652Z,6.67
2019-02-24T14:50:27.363Z,7.60
2019-02-24T14:52:56.129Z,7.25
2019-02-24T14:55:25.770Z,8.03
2019-02-24T14:57:54.522Z,7.35
2019-02-24T15:00:23.340Z,6.62
2019-02-24T15:02:52.146Z,7.40
2019-02-24T15:05:20.865Z,7.33
2019-02-24T15:07:49.601Z,6.72
2019-02-24T15:10:18.454Z,6.70
2019-02-24T15:12:47.169Z,5.70
2019-02-24T15:15:17.364Z,6.65
2019-02-24T15:17:46.094Z,7.37
2019-02-24T15:20:16.851Z,6.03
2019-02-24T15:22:45.590Z,6.72
2019-02-24T15:25:15.101Z,6.85
2019-02-24T15:27:43.897Z,6.03
2019-02-24T15:30:16.611Z,8.28
2019-02-24T15:32:51.434Z,6.75
2019-02-24T15:35:15.898Z,6.60
2019-02-24T15:37:44.635Z,5.92
2019-02-24T15:40:13.569Z,6.05
2019-02-24T15:42:42.391Z,5.78
2019-02-24T15:45:11.482Z,6.00
2019-02-24T15:47:40.273Z,5.62
2019-02-24T15:50:09.282Z,5.72
2019-02-24T15:52:38.110Z,5.20
2019-02-24T15:55:07.446Z,5.60
2019-02-24T15:57:36.201Z,4.85
2019-02-24T16:00:07.519Z,4.37
2019-02-24T16:02:36.256Z,5.30
2019-02-24T16:05:05.433Z,4.53
2019-02-24T16:07:34.167Z,4.62
2019-02-24T16:10:02.942Z,4.53
2019-02-24T16:12:31.666Z,4.90
2019-02-24T16:15:00.629Z,4.90
2019-02-24T16:17:29.362Z,5.03
2019-02-24T16:19:58.093Z,4.37
2019-02-24T16:22:26.836Z,5.53
2019-02-24T16:24:55.581Z,5.70
2019-02-24T16:27:24.489Z,5.30
2019-02-24T16:29:55.552Z,5.85
2019-02-24T16:32:24.354Z,5.40
2019-02-24T16:34:53.087Z,5.80
2019-02-24T16:37:24.968Z,4.77
2019-02-24T16:39:54.025Z,4.83
2019-02-24T16:42:22.949Z,5.53
2019-02-24T16:44:51.999Z,4.73
2019-02-24T16:47:20.997Z,4.00
2019-02-24T16:49:49.806Z,4.93
2019-02-24T16:52:18.525Z,4.87
2019-02-24T16:54:52.687Z,5.30
2019-02-24T16:57:17.955Z,4.67
2019-02-24T16:59:46.837Z,5.13
2019-02-24T17:02:22.605Z,6.57
2019-02-24T17:04:46.190Z,8.87
2019-02-24T17:07:17.240Z,5.73
2019-02-24T17:09:45.998Z,5.23
2019-02-24T17:12:14.731Z,5.40
2019-02-24T17:14:43.459Z,5.03
2019-02-24T17:17:12.219Z,5.70
2019-02-24T17:19:41.066Z,6.50
2019-02-24T17:22:09.849Z,6.20
2019-02-24T17:24:38.605Z,5.67
2019-02-24T17:27:07.328Z,5.93
2019-02-24T17:29:36.098Z,6.00
2019-02-24T17:32:05.022Z,6.33
2019-02-24T17:34:33.838Z,5.60
2019-02-24T17:37:02.788Z,6.20
2019-02-24T17:39:31.571Z,6.30
2019-02-24T17:42:00.346Z,5.80
2019-02-24T17:44:29.058Z,7.70
2019-02-24T17:46:57.990Z,7.43
2019-02-24T17:49:26.714Z,8.90
2019-02-24T17:51:56.690Z,7.43
2019-02-24T17:54:25.389Z,7.43
2019-02-24T17:56:54.169Z,7.03
2019-02-24T17:59:22.869Z,8.20
2019-02-24T18:01:51.610Z,7.37
2019-02-24T18:04:20.318Z,7.00
2019-02-24T18:06:49.041Z,6.77
2019-02-24T18:09:17.786Z,6.17
2019-02-24T18:11:46.508Z,7.27
2019-02-24T18:14:15.235Z,6.40
2019-02-24T18:16:43.990Z,6.23
2019-02-24T18:19:12.830Z,6.70
2019-02-24T18:21:41.549Z,6.70
2019-02-24T18:24:10.512Z,5.93
2019-02-24T18:26:39.306Z,7.23
2019-02-24T18:29:08.138Z,6.53
2019-02-24T18:31:36.909Z,6.33
2019-02-24T18:34:05.631Z,6.23
2019-02-24T18:36:34.364Z,6.17
2019-02-24T18:39:03.985Z,6.60
2019-02-24T18:41:32.812Z,6.47
2019-02-24T18:44:01.566Z,6.30
2019-02-24T18:46:30.321Z,6.73
2019-02-24T18:48:59.038Z,7.27
2019-02-24T18:51:27.757Z,6.23
2019-02-24T18:53:56.595Z,6.77
2019-02-24T18:56:25.398Z,6.93
2019-02-24T18:58:54.113Z,7.60
2019-02-24T19:01:22.869Z,7.37
2019-02-24T19:03:57.582Z,7.13
2019-02-24T19:06:22.004Z,6.57
2019-02-24T19:08:50.737Z,7.10
2019-02-24T19:11:19.469Z,7.33
2019-02-24T19:13:48.182Z,6.90
2019-02-24T19:16:16.938Z,6.40
2019-02-24T19:18:45.749Z,9.43
2019-02-24T19:21:14.527Z,9.50
2019-02-24T19:23:43.299Z,9.07
2019-02-24T19:26:14.842Z,8.43
2019-02-24T19:28:43.569Z,9.00
2019-02-24T19:31:12.287Z,8.60
2019-02-24T19:33:41.097Z,8.70
2019-02-24T19:36:09.880Z,8.70
2019-02-24T19:38:38.609Z,8.90
2019-02-24T19:41:07.705Z,10.43
2019-02-24T19:43:36.480Z,9.20
2019-02-24T19:46:05.214Z,9.00
2019-02-24T19:48:41.762Z,11.87
2019-02-24T19:51:04.428Z,10.50
2019-02-24T19:53:33.165Z,11.97
2019-02-24T19:56:01.877Z,11.80
2019-02-24T19:58:30.641Z,10.60
2019-02-24T20:00:59.437Z,9.80
2019-02-24T20:03:28.169Z,9.73
2019-02-24T20:05:57.005Z,9.00
2019-02-24T20:08:25.752Z,9.40
2019-02-24T20:10:54.531Z,8.63
2019-02-24T20:13:23.285Z,8.93
2019-02-24T20:15:52.010Z,8.90
2019-02-24T20:18:20.737Z,8.23
2019-02-24T20:20:49.454Z,8.80
2019-02-24T20:23:18.174Z,8.03
2019-02-24T20:25:46.956Z,9.97
2019-02-24T20:28:15.757Z,9.07
2019-02-24T20:30:44.606Z,8.57
2019-02-24T20:33:13.417Z,8.17
2019-02-24T20:35:42.191Z,8.27
2019-02-24T20:38:11.025Z,7.13
2019-02-24T20:40:39.725Z,7.67
2019-02-24T20:43:08.435Z,8.67
2019-02-24T20:45:37.253Z,7.63
2019-02-24T20:48:06.041Z,8.40
2019-02-24T20:50:34.881Z,7.60
2019-02-24T20:53:03.672Z,7.90
2019-02-24T20:55:32.443Z,8.30
2019-02-24T20:58:01.237Z,7.33
2019-02-24T21:00:32.590Z,8.20
2019-02-24T21:03:01.585Z,9.27
2019-02-24T21:05:30.818Z,9.40
2019-02-24T21:07:59.661Z,10.57
2019-02-24T21:10:28.517Z,10.50
2019-02-24T21:12:57.300Z,10.90
2019-02-24T21:15:26.123Z,11.03
2019-02-24T21:17:54.977Z,11.57
2019-02-24T21:20:25.436Z,11.03
2019-02-24T21:22:54.193Z,11.43
2019-02-24T21:25:22.977Z,9.40
2019-02-24T21:27:51.765Z,9.43
2019-02-24T21:30:21.037Z,8.30
2019-02-24T21:32:49.850Z,8.93
2019-02-24T21:35:18.641Z,7.20
2019-02-24T21:37:49.842Z,7.70
2019-02-24T21:40:18.637Z,6.53
2019-02-24T21:42:47.391Z,7.30
2019-02-24T21:45:17.621Z,6.53
2019-02-24T21:47:46.405Z,6.40
2019-02-24T21:50:15.630Z,7.37
2019-02-24T21:52:44.681Z,7.47
2019-02-24T21:55:15.974Z,7.27
2019-02-24T21:57:44.865Z,6.63
2019-02-24T22:00:16.382Z,6.57
2019-02-24T22:02:45.191Z,7.17
2019-02-24T22:05:14.045Z,8.10
2019-02-24T22:07:42.962Z,7.33
2019-02-24T22:10:12.403Z,7.57
2019-02-24T22:12:42.018Z,7.33
2019-02-24T22:15:13.966Z,7.07
2019-02-24T22:17:42.749Z,6.90
2019-02-24T22:20:11.638Z,7.63
2019-02-24T22:22:40.415Z,7.67
2019-02-24T22:25:10.070Z,6.67
2019-02-24T22:27:38.765Z,7.27
2019-02-24T22:30:09.633Z,7.10
2019-02-24T22:32:38.393Z,6.90
2019-02-24T22:35:07.542Z,7.53
2019-02-24T22:37:36.746Z,6.77
2019-02-24T22:40:07.654Z,5.93
2019-02-24T22:42:36.442Z,7.07
2019-02-24T22:45:08.423Z,6.70
2019-02-24T22:47:36.797Z,6.80
2019-02-24T22:50:06.398Z,6.57
2019-02-24T22:52:42.451Z,6.47
2019-02-24T22:55:13.892Z,6.40
2019-02-24T22:57:43.030Z,6.43
2019-02-24T23:00:23.037Z,6.17
2019-02-24T23:02:52.231Z,6.33
2019-02-24T23:05:21.061Z,6.23
2019-02-24T23:07:49.981Z,6.47
2019-02-24T23:10:18.890Z,6.77
2019-02-24T23:12:47.671Z,6.17
2019-02-24T23:15:16.401Z,7.60
2019-02-24T23:17:45.133Z,7.00
2019-02-24T23:20:14.013Z,7.57
2019-02-24T23:22:42.740Z,6.80
2019-02-24T23:25:11.699Z,7.83
2019-02-24T23:27:40.389Z,7.13
2019-02-24T23:30:09.473Z,6.93
2019-02-24T23:32:38.213Z,6.77
2019-02-24T23:35:07.210Z,6.83
2019-02-24T23:37:35.955Z,6.77
2019-02-24T23:40:05.432Z,7.07
2019-02-24T23:42:34.142Z,6.70
2019-02-24T23:45:10.008Z,6.73
2019-02-24T23:47:34.756Z,8.20
2019-02-24T23:50:03.725Z,7.37
2019-02-24T23:52:32.645Z,7.40
2019-02-24T23:55:01.384Z,8.00
2019-02-24T23:57:30.116Z,7.40
2019-02-24T23:59:58.858Z,6.67
